Time;durP1;ratioP1;P1;durP2;ratioP2;P2;SDS_P1;SDS_P2;PMS_P1;PMS_P2;Temp;Humidity;BMP_temperature;BMP_pressure;BME280_temperature;BME280_humidity;BME280_pressure;Samples;Min_cycle;Max_cycle;Signal;HPM_P1;HPM_P2
2022/11/13 00:01:49;;;;;;;6.65;3.75;;;9.30;99.90;;;9.23;100.00;102150.03;5178591;28;20057;-88
2022/11/13 00:04:44;;;;;;;7.40;3.95;;;9.30;99.90;;;9.20;100.00;102149.88;5183287;28;20062;-85
2022/11/13 00:07:38;;;;;;;7.15;3.67;;;9.20;99.90;;;9.20;100.00;102146.38;5182799;28;20185;-84
2022/11/13 00:10:29;;;;;;;6.65;3.63;;;9.20;99.90;;;9.21;100.00;102142.97;5185358;28;20511;-86
2022/11/13 00:13:27;;;;;;;8.52;4.28;;;9.20;99.90;;;9.21;100.00;102137.75;5184883;28;20061;-85
2022/11/13 00:16:31;;;;;;;7.35;4.32;;;9.20;99.90;;;9.23;100.00;102142.25;5190237;28;20046;-85
2022/11/13 00:19:25;;;;;;;8.13;4.43;;;9.20;99.90;;;9.23;100.00;102141.34;5185127;28;20061;-87
2022/11/13 00:22:28;;;;;;;7.70;4.00;;;9.30;99.90;;;9.25;100.00;102144.94;5184703;28;20089;-85
2022/11/13 00:25:19;;;;;;;8.40;4.35;;;9.30;99.90;;;9.25;100.00;102137.13;5183796;28;20058;-85
2022/11/13 00:28:09;;;;;;;9.40;4.72;;;9.30;99.90;;;9.27;100.00;102127.72;5164765;28;20126;-84
2022/11/13 00:31:02;;;;;;;8.70;4.30;;;9.30;99.90;;;9.28;100.00;102128.63;5166683;28;20066;-87
2022/11/13 00:33:53;;;;;;;10.15;5.15;;;9.30;99.90;;;9.26;100.00;102131.13;5139090;28;20047;-84
2022/11/13 00:36:45;;;;;;;12.90;6.07;;;9.30;99.90;;;9.25;100.00;102124.09;5177636;28;20100;-85
2022/11/13 00:39:36;;;;;;;13.40;6.07;;;9.30;99.90;;;9.24;100.00;102127.53;5180258;28;20141;-85
2022/11/13 00:42:27;;;;;;;9.27;5.38;;;9.30;99.90;;;9.20;100.00;102120.34;5180740;28;20125;-85
2022/11/13 00:45:17;;;;;;;9.07;5.05;;;9.30;99.90;;;9.19;100.00;102123.72;5179451;28;20061;-84
2022/11/13 00:48:08;;;;;;;11.63;5.47;;;9.20;99.90;;;9.16;100.00;102119.25;5177252;28;20050;-85
2022/11/13 00:50:59;;;;;;;9.30;5.38;;;9.20;99.90;;;9.15;100.00;102121.75;5164218;28;20053;-85
2022/11/13 00:53:52;;;;;;;10.85;5.28;;;9.20;99.90;;;9.15;100.00;102111.38;5178643;28;20050;-85
2022/11/13 00:56:43;;;;;;;9.90;4.93;;;9.20;99.90;;;9.15;100.00;102111.38;5178541;28;20049;-86
2022/11/13 00:59:33;;;;;;;11.57;5.55;;;9.20;99.90;;;9.15;100.00;102116.56;5178900;28;20076;-85
2022/11/13 01:02:24;;;;;;;10.02;5.03;;;9.20;99.90;;;9.13;100.00;102111.28;5160803;28;20054;-85
2022/11/13 01:05:15;;;;;;;9.15;4.57;;;9.20;99.90;;;9.14;100.00;102106.97;5158882;28;20122;-85
2022/11/13 01:08:06;;;;;;;8.45;4.55;;;9.20;99.90;;;9.13;100.00;102108.66;5161322;28;20086;-84
2022/11/13 01:10:59;;;;;;;8.10;4.32;;;9.20;99.90;;;9.12;100.00;102105.94;5171251;28;20047;-85
2022/11/13 01:13:52;;;;;;;9.60;4.70;;;9.20;99.90;;;9.11;100.00;102104.16;5169731;28;20050;-85
2022/11/13 01:16:43;;;;;;;9.73;4.80;;;9.20;99.90;;;9.06;100.00;102108.16;5154869;28;20221;-85
2022/11/13 01:19:33;;;;;;;11.38;4.65;;;9.10;99.90;;;9.03;100.00;102095.88;5155239;28;20046;-86
2022/11/13 01:22:24;;;;;;;8.48;4.88;;;9.10;99.90;;;9.00;100.00;102093.13;5155154;28;20189;-85
2022/11/13 01:25:15;;;;;;;8.63;4.68;;;9.10;99.90;;;9.00;100.00;102092.19;5154866;28;20095;-86
2022/11/13 01:28:07;;;;;;;10.13;4.95;;;9.10;99.90;;;8.95;100.00;102087.63;5154216;28;20058;-84
2022/11/13 01:30:58;;;;;;;9.40;4.88;;;9.00;99.90;;;8.92;100.00;102089.13;5155254;28;20058;-84
2022/11/13 01:33:50;;;;;;;9.88;5.00;;;9.00;99.90;;;8.89;100.00;102075.94;5155148;28;20131;-86
2022/11/13 01:36:40;;;;;;;9.38;4.65;;;9.00;99.90;;;8.89;100.00;102078.53;5154722;28;20097;-82
2022/11/13 01:39:32;;;;;;;7.32;4.25;;;8.90;99.90;;;8.88;100.00;102082.84;5154210;28;20110;-86
2022/11/13 01:42:22;;;;;;;9.60;4.95;;;8.90;99.90;;;8.88;100.00;102084.56;5155019;28;20050;-85
2022/11/13 01:46:08;;;;;;;9.63;4.05;;;8.90;99.90;;;8.88;100.00;102075.03;5154467;28;20050;-85
2022/11/13 01:49:11;;;;;;;7.78;4.07;;;8.90;99.90;;;8.89;100.00;102076.84;5132217;29;20051;-84
2022/11/13 01:52:05;;;;;;;8.63;3.95;;;9.00;99.90;;;8.90;100.00;102081.22;5139948;28;20165;-85
2022/11/13 01:54:58;;;;;;;8.38;4.18;;;9.00;99.90;;;8.89;100.00;102076.84;5174134;28;20078;-84
2022/11/13 01:57:49;;;;;;;8.75;4.03;;;9.00;99.90;;;8.89;100.00;102076.84;5173885;28;20069;-84
2022/11/13 02:00:39;;;;;;;7.57;4.18;;;9.00;99.90;;;8.88;100.00;102072.44;5174549;28;20110;-82
2022/11/13 02:03:31;;;;;;;9.68;4.68;;;9.00;99.90;;;8.87;100.00;102067.16;5175006;28;20180;-84
2022/11/13 02:06:22;;;;;;;8.82;4.55;;;9.00;99.90;;;8.87;100.00;102065.44;5174170;28;20049;-84
2022/11/13 02:09:15;;;;;;;9.80;4.57;;;8.90;99.90;;;8.84;100.00;102065.25;5172958;28;20093;-86
2022/11/13 02:12:08;;;;;;;7.47;4.30;;;8.90;99.90;;;8.83;100.00;102060.84;5173862;28;20170;-86
2022/11/13 02:15:01;;;;;;;7.13;4.43;;;8.90;99.90;;;8.81;100.00;102046.88;5173945;28;20053;-87
2022/11/13 02:17:57;;;;;;;8.05;4.38;;;8.90;99.90;;;8.78;100.00;102046.66;5172627;28;20575;-84
2022/11/13 02:20:58;;;;;;;8.77;4.10;;;8.90;99.90;;;8.77;100.00;102055.28;5174330;28;20046;-85
2022/11/13 02:23:58;;;;;;;7.07;4.13;;;8.80;99.90;;;8.72;100.00;102046.28;5173339;28;20421;-84
2022/11/13 02:26:52;;;;;;;9.35;4.07;;;8.80;99.90;;;8.64;100.00;102038.00;5173879;28;20464;-85
2022/11/13 02:29:43;;;;;;;8.60;4.40;;;8.70;99.90;;;8.59;100.00;102035.94;5173447;28;20161;-84
2022/11/13 02:32:34;;;;;;;7.95;4.47;;;8.70;99.90;;;8.48;100.00;102039.56;5173166;28;20076;-84
2022/11/13 02:35:28;;;;;;;10.68;5.05;;;8.60;99.90;;;8.38;100.00;102033.78;5173565;28;20057;-84
2022/11/13 02:38:18;;;;;;;7.90;4.40;;;8.50;99.90;;;8.30;100.00;102028.88;5173466;28;20045;-85
2022/11/13 02:41:09;;;;;;;8.38;4.15;;;8.40;99.90;;;8.21;100.00;102029.16;5173127;28;20097;-84
2022/11/13 02:44:01;;;;;;;7.57;4.03;;;8.30;99.90;;;8.10;100.00;102030.19;5172842;28;20054;-84
2022/11/13 02:46:52;;;;;;;7.18;4.20;;;8.20;99.90;;;8.01;100.00;102019.19;5172906;28;20076;-85
2022/11/13 02:49:43;;;;;;;8.25;3.70;;;8.10;99.90;;;7.93;100.00;102025.59;5173076;28;20092;-86
2022/11/13 02:52:33;;;;;;;7.90;4.10;;;8.00;99.90;;;7.82;100.00;102012.84;5172667;28;20109;-85
2022/11/13 02:55:24;;;;;;;6.30;3.72;;;7.90;99.90;;;7.73;100.00;102012.22;5172402;28;20069;-85
2022/11/13 02:58:16;;;;;;;6.80;3.80;;;7.80;99.90;;;7.64;100.00;102006.44;5172574;28;20062;-84
2022/11/13 03:01:08;;;;;;;7.60;3.90;;;7.80;99.90;;;7.52;100.00;102000.44;5172805;28;20480;-84
2022/11/13 03:03:59;;;;;;;7.28;3.88;;;7.70;99.90;;;7.49;100.00;102000.22;5172806;28;20055;-84
2022/11/13 03:06:49;;;;;;;5.65;3.35;;;7.60;99.90;;;7.42;100.00;102001.50;5173284;28;20076;-84
2022/11/13 03:09:41;;;;;;;8.10;3.88;;;7.50;99.90;;;7.35;100.00;101994.13;5172678;28;20429;-84
2022/11/13 03:12:33;;;;;;;6.57;3.60;;;7.50;99.90;;;7.28;100.00;101987.63;5172611;28;20069;-85
2022/11/13 03:15:23;;;;;;;7.80;3.88;;;7.40;99.90;;;7.21;100.00;101990.59;5172762;28;20130;-86
2022/11/13 03:18:16;;;;;;;6.53;3.70;;;7.30;99.90;;;7.14;100.00;101985.81;5172392;28;20052;-85
2022/11/13 03:21:09;;;;;;;7.18;3.80;;;7.30;99.90;;;7.10;100.00;101983.78;5172268;28;20416;-84
2022/11/13 03:24:00;;;;;;;6.82;3.60;;;7.20;99.90;;;7.04;100.00;101998.94;5172491;28;20576;-86
2022/11/13 03:26:51;;;;;;;7.07;3.60;;;7.20;99.90;;;6.97;100.00;102002.81;5172782;28;20050;-87
2022/11/13 03:29:41;;;;;;;8.63;3.65;;;7.10;99.90;;;6.94;100.00;102001.72;5171938;28;20101;-84
2022/11/13 03:32:32;;;;;;;8.02;3.30;;;7.10;99.90;;;6.92;100.00;102008.50;5172328;28;20061;-84
2022/11/13 03:35:25;;;;;;;7.80;3.90;;;7.00;99.90;;;6.89;100.00;102011.75;5172788;28;20077;-85
2022/11/13 03:38:15;;;;;;;7.53;4.28;;;7.00;99.90;;;6.84;100.00;102009.63;5173012;28;20081;-84
2022/11/13 03:41:06;;;;;;;6.65;3.65;;;7.00;99.90;;;6.76;100.00;102007.41;5173194;28;20105;-85
2022/11/13 03:43:57;;;;;;;9.18;4.25;;;6.90;99.90;;;6.70;100.00;102012.16;5172675;28;20060;-84
2022/11/13 03:46:47;;;;;;;5.55;3.50;;;6.80;99.90;;;6.66;100.00;102011.88;5173451;28;20113;-86
2022/11/13 03:49:38;;;;;;;9.95;3.85;;;6.80;99.90;;;6.63;100.00;102007.34;5172246;28;20061;-84
2022/11/13 03:52:30;;;;;;;9.07;3.90;;;6.80;99.90;;;6.59;100.00;102001.88;5172975;28;20703;-85
2022/11/13 03:55:21;;;;;;;6.95;3.60;;;6.80;99.90;;;6.55;100.00;102005.03;5172307;28;20514;-83
2022/11/13 03:58:13;;;;;;;7.75;3.80;;;6.70;99.90;;;6.53;100.00;102002.34;5172634;28;20198;-85
2022/11/13 04:01:04;;;;;;;7.75;3.92;;;6.70;99.90;;;6.55;100.00;102003.34;5173430;28;20120;-84
2022/11/13 04:03:54;;;;;;;7.53;3.78;;;6.70;99.90;;;6.55;100.00;102000.75;5172607;28;20050;-86
2022/11/13 04:06:45;;;;;;;7.32;3.80;;;6.70;99.90;;;6.51;100.00;101998.72;5173768;28;20055;-86
2022/11/13 04:09:37;;;;;;;7.18;4.97;;;6.60;99.90;;;6.46;100.00;101997.53;5171408;28;20480;-85
2022/11/13 04:12:28;;;;;;;7.68;3.50;;;6.60;99.90;;;6.41;100.00;101997.19;5172084;28;20054;-83
2022/11/13 04:15:19;;;;;;;6.72;3.47;;;6.60;99.90;;;6.38;100.00;101990.88;5172225;28;20057;-85
2022/11/13 04:18:09;;;;;;;6.28;3.65;;;6.60;99.90;;;6.36;100.00;101987.28;5171899;28;20054;-84
2022/11/13 04:21:01;;;;;;;7.93;3.80;;;6.50;99.90;;;6.32;100.00;101987.84;5171772;28;20065;-86
2022/11/13 04:23:52;;;;;;;7.28;4.13;;;6.50;99.90;;;6.31;100.00;101989.56;5171432;28;20129;-85
2022/11/13 04:26:44;;;;;;;7.47;3.83;;;6.50;99.90;;;6.29;100.00;101985.06;5171789;28;20437;-84
2022/11/13 04:29:35;;;;;;;8.00;3.80;;;6.50;99.90;;;6.25;100.00;101984.81;5171248;28;20141;-85
2022/11/13 04:32:25;;;;;;;6.20;3.70;;;6.40;99.90;;;6.24;100.00;101976.97;5171471;28;20148;-85
2022/11/13 04:35:16;;;;;;;8.40;3.63;;;6.40;99.90;;;6.21;100.00;101980.25;5171036;28;20104;-85
2022/11/13 04:38:07;;;;;;;5.70;3.20;;;6.40;99.90;;;6.19;100.00;101976.66;5170622;28;20188;-84
2022/11/13 04:44:05;;;;;;;6.50;3.25;;;6.40;99.90;;;6.18;100.00;101969.66;5174448;28;20050;-84
2022/11/13 04:46:55;;;;;;;6.65;3.72;;;6.40;99.90;;;6.15;100.00;101964.28;5175806;28;20136;-86
2022/11/13 04:49:46;;;;;;;7.38;3.60;;;6.30;99.90;;;6.10;100.00;101955.28;5174954;28;20050;-85
2022/11/13 04:52:37;;;;;;;6.88;3.42;;;6.30;99.90;;;6.06;100.00;101955.84;5175870;28;20173;-85
2022/11/13 04:55:28;;;;;;;6.97;3.60;;;6.20;99.90;;;6.05;100.00;101953.13;5175965;28;20050;-84
2022/11/13 04:58:19;;;;;;;7.20;3.33;;;6.20;99.90;;;6.08;100.00;101946.50;5174724;28;20050;-85
2022/11/13 05:01:11;;;;;;;7.05;4.40;;;6.20;99.90;;;6.06;100.00;101942.88;5332325;23;20065;-72
2022/11/13 05:04:02;;;;;;;8.52;3.50;;;6.30;99.90;;;6.13;100.00;101947.75;5140317;28;20046;-72
2022/11/13 05:06:53;;;;;;;6.45;3.28;;;6.30;99.90;;;6.23;100.00;101938.91;5148517;28;20719;-69
2022/11/13 05:09:43;;;;;;;6.68;3.15;;;6.40;99.90;;;6.31;100.00;101931.69;5146886;28;20058;-71
2022/11/13 05:12:34;;;;;;;5.78;3.40;;;6.50;99.90;;;6.40;100.00;101925.47;5146921;28;20456;-70
2022/11/13 05:15:25;;;;;;;5.75;3.40;;;6.50;99.90;;;6.49;100.00;101922.59;5146644;28;20133;-71
2022/11/13 05:18:17;;;;;;;4.35;3.15;;;6.60;99.90;;;6.57;100.00;101918.84;5146302;28;20522;-70
2022/11/13 05:21:09;;;;;;;5.53;2.92;;;6.70;99.90;;;6.64;100.00;101928.81;5146737;28;20061;-71
2022/11/13 05:24:00;;;;;;;5.80;3.30;;;6.80;99.90;;;6.70;100.00;101926.66;5146943;28;20443;-72
2022/11/13 05:26:51;;;;;;;6.55;3.00;;;6.80;99.90;;;6.74;100.00;101915.72;5146511;28;20117;-71
2022/11/13 05:29:42;;;;;;;4.45;2.35;;;6.90;99.90;;;6.79;100.00;101909.16;5146164;28;20104;-71
2022/11/13 05:32:32;;;;;;;5.50;2.60;;;6.90;99.90;;;6.84;100.00;101911.13;5146397;28;20058;-71
2022/11/13 05:35:24;;;;;;;5.28;2.30;;;6.90;99.90;;;6.86;100.00;101910.47;5138629;28;20058;-70
2022/11/13 05:38:15;;;;;;;4.15;2.53;;;7.00;99.90;;;6.87;100.00;101911.38;5165646;28;20049;-71
2022/11/13 05:41:07;;;;;;;5.53;2.80;;;7.00;99.90;;;6.88;100.00;101913.16;5166326;28;20514;-71
2022/11/13 05:43:58;;;;;;;4.13;2.40;;;7.00;99.90;;;6.86;100.00;101904.38;5167448;28;20073;-72
2022/11/13 05:46:49;;;;;;;4.40;2.25;;;7.00;99.90;;;6.82;100.00;101907.56;5166288;28;20527;-71
2022/11/13 05:49:39;;;;;;;4.55;2.30;;;6.90;99.90;;;6.74;100.00;101910.53;5157959;28;20069;-72
2022/11/13 05:52:31;;;;;;;4.03;2.40;;;6.90;99.90;;;6.66;100.00;101906.53;5166254;28;20431;-72
2022/11/13 05:55:22;;;;;;;3.65;2.30;;;6.80;99.90;;;6.56;100.00;101895.41;5166109;28;20077;-70
2022/11/13 05:58:12;;;;;;;4.82;2.70;;;6.70;99.90;;;6.47;100.00;101898.28;5165382;28;20129;-71
2022/11/13 06:01:12;;;;;;;4.85;2.83;;;6.60;99.90;;;6.40;100.00;101888.31;5165545;28;20050;-70
2022/11/13 06:04:03;;;;;;;5.95;3.03;;;6.50;99.90;;;6.34;100.00;101890.47;5163476;28;20117;-70
2022/11/13 06:06:54;;;;;;;6.05;2.85;;;6.50;99.90;;;6.27;100.00;101877.91;5125181;28;20189;-71
2022/11/13 06:09:46;;;;;;;5.38;2.60;;;6.40;99.90;;;6.21;100.00;101879.25;5164049;28;20057;-70
2022/11/13 06:12:36;;;;;;;4.03;2.65;;;6.40;99.90;;;6.14;100.00;101882.22;5162273;28;20050;-71
2022/11/13 06:15:27;;;;;;;4.93;2.67;;;6.30;99.90;;;6.07;100.00;101869.63;5159260;28;20050;-71
2022/11/13 06:18:22;;;;;;;7.57;2.85;;;6.20;99.90;;;6.03;100.00;101870.19;5165034;28;20085;-70
2022/11/13 06:21:15;;;;;;;5.63;2.92;;;6.20;99.90;;;5.99;100.00;101860.41;5165804;28;20134;-70
2022/11/13 06:24:07;;;;;;;5.38;2.80;;;6.10;99.90;;;5.95;100.00;101868.78;5166770;28;20124;-69
2022/11/13 06:26:59;;;;;;;4.28;2.53;;;6.10;99.90;;;5.92;100.00;101863.38;5157347;28;20053;-70
2022/11/13 06:29:50;;;;;;;3.97;2.50;;;6.10;99.90;;;5.89;100.00;101869.19;5154752;28;20140;-70
2022/11/13 06:32:40;;;;;;;4.38;2.70;;;6.10;99.90;;;5.87;100.00;101855.28;5163474;28;20132;-70
2022/11/13 06:35:31;;;;;;;4.93;2.83;;;6.00;99.90;;;5.85;100.00;101866.28;5166133;28;20511;-70
2022/11/13 06:38:21;;;;;;;5.00;2.58;;;6.00;99.90;;;5.79;100.00;101860.66;5154340;28;20049;-71
2022/11/13 06:41:15;;;;;;;4.85;2.50;;;6.00;99.90;;;5.78;100.00;101858.88;5166663;28;20050;-70
2022/11/13 06:44:07;;;;;;;4.88;2.80;;;5.90;99.90;;;5.78;100.00;101854.59;5165542;28;20073;-70
2022/11/13 06:46:58;;;;;;;5.22;2.85;;;6.00;99.90;;;5.79;100.00;101855.50;5165647;28;20046;-70
2022/11/13 06:49:48;;;;;;;5.60;2.67;;;5.90;99.90;;;5.84;100.00;101851.56;5156005;28;20058;-71
2022/11/13 06:52:39;;;;;;;4.43;2.45;;;6.00;99.90;;;5.88;100.00;101851.00;5162403;28;20180;-70
2022/11/13 06:55:29;;;;;;;4.32;2.38;;;6.00;99.90;;;5.95;100.00;101848.06;5165473;28;20170;-70
2022/11/13 06:58:20;;;;;;;4.72;2.88;;;6.10;99.90;;;6.01;100.00;101853.69;5154491;28;20091;-71
2022/11/13 07:01:14;;;;;;;4.20;2.65;;;6.10;99.90;;;6.03;100.00;101844.31;5166563;28;20049;-70
2022/11/13 07:04:05;;;;;;;4.93;2.50;;;6.20;99.90;;;6.10;100.00;101835.28;5164592;28;20642;-58
2022/11/13 07:06:56;;;;;;;3.88;2.33;;;6.30;99.90;;;6.17;100.00;101833.22;5164549;28;20491;-58
2022/11/13 07:09:46;;;;;;;4.53;2.80;;;6.30;99.90;;;6.23;100.00;101841.41;5164557;28;20521;-58
2022/11/13 07:12:37;;;;;;;3.97;2.30;;;6.40;99.90;;;6.29;100.00;101840.03;5164280;28;20164;-57
2022/11/13 07:15:28;;;;;;;3.92;2.40;;;6.50;99.90;;;6.29;100.00;101846.13;5164321;28;20366;-58
2022/11/13 07:18:21;;;;;;;6.00;2.67;;;6.40;99.90;;;6.25;100.00;101845.00;5163711;28;20209;-57
2022/11/13 07:21:13;;;;;;;3.72;2.20;;;6.40;99.90;;;6.19;100.00;101854.97;5165391;28;20144;-58
2022/11/13 07:24:04;;;;;;;3.70;2.05;;;6.40;99.90;;;6.15;100.00;101847.75;5163954;28;20057;-58
2022/11/13 07:26:55;;;;;;;4.38;2.63;;;6.30;99.90;;;6.12;100.00;101857.88;5164267;28;20072;-58
2022/11/13 07:29:46;;;;;;;5.10;2.60;;;6.30;99.90;;;6.11;100.00;101845.75;5163754;28;20184;-57
2022/11/13 07:32:36;;;;;;;4.50;2.40;;;6.30;99.90;;;6.11;100.00;101843.16;5163795;28;20073;-57
2022/11/13 07:35:28;;;;;;;4.30;2.33;;;6.30;99.90;;;6.13;100.00;101841.59;5163850;28;20116;-57
2022/11/13 07:38:18;;;;;;;5.38;2.65;;;6.30;99.90;;;6.16;100.00;101839.19;5163697;28;20136;-58
2022/11/13 07:41:09;;;;;;;4.60;2.50;;;6.30;99.90;;;6.19;100.00;101835.91;5164045;28;20057;-57
2022/11/13 07:44:00;;;;;;;4.30;2.38;;;6.40;99.90;;;6.24;100.00;101831.94;5163232;28;20069;-59
2022/11/13 07:46:50;;;;;;;4.35;2.30;;;6.40;99.90;;;6.28;100.00;101833.06;5163495;28;20526;-57
2022/11/13 07:49:41;;;;;;;4.57;2.53;;;6.40;99.90;;;6.29;100.00;101827.09;5163549;28;20057;-59
2022/11/13 07:52:33;;;;;;;4.65;2.45;;;6.40;99.90;;;6.33;100.00;101821.34;5163517;28;20081;-57
2022/11/13 07:55:24;;;;;;;5.30;2.67;;;6.40;99.90;;;6.37;100.00;101823.31;5163494;28;20090;-58
2022/11/13 07:58:14;;;;;;;5.28;2.65;;;6.50;99.90;;;6.41;100.00;101821.06;5163679;28;20054;-57
2022/11/13 08:01:06;;;;;;;5.50;2.60;;;6.60;99.90;;;6.44;100.00;101810.88;5163357;28;20507;-58
2022/11/13 08:03:57;;;;;;;4.88;2.67;;;6.60;99.90;;;6.51;100.00;101813.09;5162937;28;20191;-59
2022/11/13 08:06:47;;;;;;;4.78;2.60;;;6.60;99.90;;;6.57;100.00;101811.72;5163241;28;20140;-60
2022/11/13 08:09:39;;;;;;;8.45;3.35;;;6.70;99.90;;;6.59;100.00;101811.03;5153061;28;20058;-62
2022/11/13 08:12:30;;;;;;;4.85;2.88;;;6.70;99.90;;;6.63;100.00;101812.13;5158372;28;20428;-62
2022/11/13 08:15:21;;;;;;;5.90;2.85;;;6.70;99.90;;;6.65;100.00;101807.94;5163593;28;20081;-62
2022/11/13 08:18:11;;;;;;;6.45;2.90;;;6.80;99.90;;;6.68;100.00;101810.75;5140082;28;20132;-62
2022/11/13 08:21:03;;;;;;;5.75;3.08;;;6.80;99.90;;;6.71;100.00;101822.19;5167078;28;20081;-61
2022/11/13 08:23:53;;;;;;;5.15;2.83;;;6.80;99.90;;;6.76;100.00;101815.63;5126006;28;20078;-60
2022/11/13 08:26:45;;;;;;;5.55;2.60;;;6.90;99.90;;;6.81;100.00;101813.34;5142092;28;20124;-60
2022/11/13 08:29:36;;;;;;;6.15;3.08;;;6.90;99.90;;;6.88;100.00;101804.28;5126211;28;20555;-59
2022/11/13 08:32:27;;;;;;;5.20;2.97;;;6.90;99.90;;;6.95;100.00;101811.66;5126895;28;20513;-58
2022/11/13 08:35:18;;;;;;;5.90;3.00;;;7.00;99.90;;;7.03;100.00;101805.28;5127291;29;20532;-58
2022/11/13 08:38:09;;;;;;;5.88;2.95;;;7.10;99.90;;;7.14;100.00;101799.09;5126399;28;20182;-58
2022/11/13 08:41:01;;;;;;;6.28;3.13;;;7.20;99.90;;;7.33;100.00;101801.19;5126543;29;20501;-62
2022/11/13 08:43:53;;;;;;;5.50;2.78;;;7.30;99.90;;;7.61;100.00;101793.44;5126522;29;20059;-61
2022/11/13 08:46:44;;;;;;;5.93;2.65;;;7.60;99.90;;;7.95;100.00;101790.31;5126589;29;20062;-61
2022/11/13 08:49:34;;;;;;;5.90;2.95;;;7.80;99.90;;;8.35;100.00;101778.97;5126233;28;20443;-57
2022/11/13 08:52:25;;;;;;;4.70;2.30;;;8.20;99.90;;;8.75;100.00;101772.59;5142698;28;20058;-57
2022/11/13 08:55:16;;;;;;;4.55;2.58;;;8.50;99.90;;;9.19;100.00;101770.81;5147085;28;20046;-57
2022/11/13 08:58:06;;;;;;;4.65;2.17;;;8.90;99.90;;;9.58;100.00;101775.50;5138545;28;20053;-60
2022/11/13 09:01:01;;;;;;;3.75;2.25;;;9.30;99.90;;;9.94;100.00;101776.59;5130359;28;20428;-58
2022/11/13 09:03:52;;;;;;;4.35;2.45;;;9.70;99.90;;;10.24;100.00;101766.94;5138282;28;20053;-58
2022/11/13 09:06:42;;;;;;;3.75;2.17;;;10.00;99.90;;;10.52;99.57;101762.28;5146004;28;20057;-58
2022/11/13 09:09:33;;;;;;;5.80;2.50;;;10.30;99.90;;;10.82;96.81;101762.94;5136063;28;20551;-59
2022/11/13 09:12:24;;;;;;;4.63;2.85;;;10.50;99.90;;;11.06;93.66;101763.19;5142298;28;20418;-58
2022/11/13 09:15:15;;;;;;;5.55;3.10;;;10.80;99.90;;;11.32;91.92;101771.38;5141025;28;20251;-59
2022/11/13 09:18:06;;;;;;;5.20;3.00;;;11.00;99.90;;;11.58;90.33;101768.25;5138243;28;20539;-61
2022/11/13 09:21:01;;;;;;;5.63;2.92;;;11.30;99.90;;;11.82;88.18;101768.53;5138485;28;20173;-58
2022/11/13 09:23:52;;;;;;;6.20;2.92;;;11.50;99.90;;;12.05;85.76;101766.94;5135296;28;20153;-60
2022/11/13 09:26:42;;;;;;;4.25;2.63;;;11.70;99.90;;;12.29;84.94;101761.00;5143963;28;20066;-60
2022/11/13 09:29:34;;;;;;;4.47;2.60;;;11.90;99.40;;;12.49;83.33;101760.13;5145171;28;20435;-60
2022/11/13 09:32:24;;;;;;;4.25;2.45;;;12.10;98.80;;;12.72;83.27;101767.22;5145686;28;20062;-60
2022/11/13 09:35:32;;;;;;;4.72;2.40;;;12.30;98.70;;;12.94;80.58;101757.63;5145436;28;20058;-59
2022/11/13 09:38:23;;;;;;;5.03;2.50;;;12.60;97.50;;;13.19;80.24;101768.25;5164914;28;20092;-59
2022/11/13 09:41:19;;;;;;;9.50;3.80;;;12.80;97.30;;;13.28;77.81;101763.38;5165412;28;20173;-59
2022/11/13 09:44:17;;;;;;;6.22;3.13;;;12.90;95.80;;;13.45;77.83;101755.31;5165624;28;20061;-57
2022/11/13 09:47:16;;;;;;;5.13;2.85;;;13.10;95.90;;;13.59;77.29;101756.72;5158899;28;20105;-59
2022/11/13 09:50:20;;;;;;;6.95;2.80;;;13.20;95.40;;;13.72;76.12;101755.44;5131478;28;20049;-60
2022/11/13 09:53:13;;;;;;;6.40;2.97;;;13.30;94.80;;;13.86;74.80;101748.97;5139648;28;20489;-59
2022/11/13 09:56:22;;;;;;;4.32;2.40;;;13.50;94.10;;;13.97;74.63;101758.13;5124681;28;20081;-62
2022/11/13 09:59:24;;;;;;;4.47;2.47;;;13.60;93.80;;;14.06;73.53;101762.81;5124125;29;20054;-59
2022/11/13 10:02:23;;;;;;;5.93;3.15;;;13.70;92.90;;;14.16;71.54;101748.31;5124693;29;20416;-59
2022/11/13 10:05:23;;;;;;;7.45;4.10;;;13.80;91.70;;;14.23;70.85;101753.81;5124830;29;20062;-61
2022/11/13 10:08:18;;;;;;;5.93;3.10;;;13.90;91.50;;;14.35;70.71;101751.63;5138635;28;20173;-60
2022/11/13 10:11:15;;;;;;;5.50;2.80;;;14.00;91.10;;;14.50;70.26;101750.41;5145891;28;20069;-59
2022/11/13 10:14:17;;;;;;;8.68;4.80;;;14.10;90.60;;;14.53;69.11;101745.25;5155769;28;20061;-58
2022/11/13 10:17:15;;;;;;;6.82;3.72;;;14.20;89.90;;;14.62;69.60;101740.31;5144110;28;20483;-60
2022/11/13 10:20:14;;;;;;;6.13;3.65;;;14.20;90.00;;;14.74;69.32;101740.72;5136840;28;20070;-58
2022/11/13 10:23:13;;;;;;;3.83;2.10;;;14.30;89.40;;;14.84;68.43;101736.66;5144047;28;20231;-58
2022/11/13 10:26:15;;;;;;;3.53;2.20;;;14.40;88.10;;;14.95;68.50;101737.91;5145425;28;20105;-59
2022/11/13 10:29:13;;;;;;;2.70;1.85;;;14.50;88.00;;;15.09;67.57;101735.69;5109125;28;20129;-60
2022/11/13 10:32:17;;;;;;;3.70;1.88;;;14.60;86.90;;;15.25;69.29;101729.19;5144908;28;20136;-60
2022/11/13 10:35:33;;;;;;;2.72;1.70;;;14.80;88.70;;;15.29;65.77;101721.44;5144717;28;20416;-59
2022/11/13 10:38:32;;;;;;;2.72;1.70;;;14.90;83.90;;;15.38;64.37;101716.44;5143823;28;20082;-59
2022/11/13 10:41:22;;;;;;;2.75;1.60;;;15.00;81.80;;;15.51;64.69;101707.19;5143860;28;20061;-61
2022/11/13 10:44:26;;;;;;;2.83;1.83;;;15.10;82.00;;;15.62;63.68;101704.91;5143861;28;20061;-61
2022/11/13 10:47:19;;;;;;;2.38;1.52;;;15.20;80.10;;;15.79;68.77;101695.78;5144256;28;20519;-61
2022/11/13 10:50:11;;;;;;;5.05;1.75;;;15.40;87.60;;;16.12;69.54;101687.03;5143775;28;20129;-61
2022/11/13 10:53:02;;;;;;;3.42;1.70;;;15.70;87.80;;;16.20;65.82;101691.63;5143614;28;20157;-62
2022/11/13 10:55:57;;;;;;;3.13;1.40;;;15.80;82.60;;;16.25;65.09;101690.00;5143936;28;20523;-61
2022/11/13 10:59:01;;;;;;;3.28;2.13;;;15.90;81.30;;;16.33;67.72;101681.41;5143540;28;20527;-61
2022/11/13 11:01:52;;;;;;;2.40;1.73;;;16.00;84.30;;;16.43;67.47;101676.44;5143917;28;20508;-62
2022/11/13 11:04:43;;;;;;;2.85;1.98;;;16.10;83.50;;;16.56;68.01;101672.34;5143506;28;20061;-64
2022/11/13 11:07:40;;;;;;;2.50;1.73;;;16.20;84.50;;;16.59;63.48;101663.63;5143742;28;20420;-61
2022/11/13 11:10:34;;;;;;;3.05;1.95;;;16.30;78.70;;;16.59;62.99;101658.38;5143704;28;20053;-59
2022/11/13 11:13:26;;;;;;;;;;;16.30;77.70;;;16.62;62.67;101653.16;5143499;28;20057;-59
2022/11/13 11:16:22;;;;;;;2.38;1.50;;;16.30;76.90;;;16.66;62.13;101640.13;5137070;28;19969;-60
2022/11/13 11:19:16;;;;;;;2.00;1.40;;;16.30;76.00;;;16.71;62.09;101637.66;5131132;28;20100;-60
2022/11/13 11:22:14;;;;;;;2.35;1.33;;;16.30;75.70;;;16.76;62.66;101633.38;5143048;28;20181;-61
2022/11/13 11:28:11;;;;;;;1.88;1.30;;;16.40;74.00;;;16.83;60.92;101622.13;5100495;29;20047;-61
2022/11/13 11:31:12;;;;;;;2.40;1.50;;;16.40;73.80;;;16.85;60.82;101612.50;5103576;29;20115;-60
2022/11/13 11:34:16;;;;;;;3.10;1.40;;;16.40;73.40;;;16.89;59.08;101606.47;5103861;29;20058;-59
2022/11/13 11:37:13;;;;;;;1.67;1.25;;;16.50;71.50;;;16.96;59.28;101602.22;5093303;29;20102;-61
2022/11/13 11:40:14;;;;;;;2.40;1.35;;;16.50;71.30;;;17.04;59.37;101601.50;5103201;29;20182;-59
2022/11/13 11:43:13;;;;;;;1.83;1.42;;;16.60;71.00;;;17.05;58.75;101598.03;5103438;29;20182;-60
2022/11/13 11:46:10;;;;;;;2.42;1.40;;;16.60;70.10;;;17.05;58.27;101592.75;5102859;29;20047;-59
2022/11/13 11:49:02;;;;;;;3.05;1.60;;;16.70;69.60;;;17.11;58.42;101585.84;5102808;29;20138;-59
2022/11/13 11:52:05;;;;;;;3.10;1.58;;;16.70;69.50;;;17.16;57.89;101578.94;5103413;29;20051;-58
2022/11/13 11:55:26;;;;;;;2.20;1.42;;;16.70;68.80;;;17.24;59.07;101574.69;5103538;29;20138;-59
2022/11/13 11:58:41;;;;;;;2.13;1.33;;;16.80;70.00;;;17.35;60.29;101581.06;5095696;29;20106;-59
2022/11/13 12:02:13;;;;;;;5.25;1.98;;;16.90;71.00;;;17.51;62.39;101571.69;5102339;29;20052;-58
2022/11/13 12:05:22;;;;;;;5.40;1.92;;;17.00;73.70;;;17.58;62.74;101569.19;5104090;29;20137;-59
2022/11/13 12:08:26;;;;;;;4.28;1.90;;;17.10;73.30;;;17.60;63.61;101556.94;5102337;29;20095;-58
2022/11/13 12:11:25;;;;;;;3.15;1.73;;;17.20;74.10;;;17.67;66.49;101554.41;5084677;29;20434;-59
2022/11/13 12:14:23;;;;;;;2.63;1.50;;;17.20;77.00;;;17.73;67.57;101544.00;5099257;29;20519;-60